Kezdőlap
METAR-TAF:

METAR-TAF

Repülőterek :

Pekingi nemzetközi repülőtér

Peking, Kína

földrajzi szélesség: 39-56N, földrajzi hosszúság: 116-17E, magasság: 55 m

Jelenlegi meteorológiai megfigyelések

A jelentés 38 perccel ezelõtt készült, 23:30 UTC
Különbözõ irányokból fújó szél 2 kt
Hőmérséklet 0°C
Páratartalom 74%
Légköri nyomás 1022 hPa
Látótávolság 10 km, vagy több
felhőtlen 1500 m magasságban, és nincs gomolyfelhõ

METAR: ZBAA 192330Z VRB01MPS CAVOK 00/M04 Q1022 NOSIG

Idő: 08:08 (00:08 UTC)

Előrejelzés

A jelentés 2 órával és 38 perccel ezelõtt készült, 21:30 UTC
Az előrejelzés 20-én 00 óra UTC és 20-én 24 óra UTC között érvényes
Észak-északnyugati szél 8 kt
Látótávolság 10 km, vagy több
felhőtlen 1500 m magasságban, és nincs gomolyfelhõ

TAF: ZBAA 192130Z 2000/2024 33004MPS CAVOK TX11/2006Z TNM02/21Z

Meteorológiai megfigyelések és előrejelzések több, mint 4000 repülőtéren (METAR és TAF jelentéseket).

A térképen piros és sárga pontok jelzik az elérhető meteorológiai állomásokat.

Mozgassa az egeret a pont fölött, hogy megjelenjen az állomás neve.

Azután kattintson az időjárási megfigyelések és előrejelzések megtekintéséhez.

A térkép megváltoztatása: kattintson a fekete keresztel jelölt zöld gombra ráközelítéshez, a vonallal jelölt zöld gombra távolításhoz, vagy a zöld nyilakra a szomszédos térképek eléréséhez.


METAR-TAF: